Latest Weather Observations for Melbourne (Olympic Park)

IDV60901

Issued at 11:45 pm EDT Friday 31 October 2014 (issued every 10 minutes, with the page automatically refreshed every 10 minutes)

About weather observations | Map of Melbourne area stations | Latest observations for Melbourne area | Other Formats
Station Details ID: 086338 Name: MELBOURNE (OLYMPIC PARK) Lat: -37.83 Lon: 144.98 Height: 7.53 m
Data from the previous 72 hours. | See also: Recent months at Melbourne (Olympic Park)
Date/Time
EDT
Tmp

°C
App
Tmp
°C
Dew
Point
°C
Rel
Hum
%
Delta-T

°C
Wind Press
QNH
hPa
Press
MSL
hPa
Rain
since
9 am
mm
Dir
 
Spd
km/h
Gust
km/h
Spd
kts
Gust
kts
31/11:30pm 24.2 18.9 6.9 33 9.0 SSW 24 46 13 25 998.0 998.0 0.0
31/11:28pm 24.9 18.7 6.1 30 9.7 SSW 28 46 15 25 997.9 997.9 0.0
31/11:00pm 27.1 24.1 6.0 26 11.1 N 11 15 6 8 996.3 996.3 0.0
31/10:30pm 26.8 23.0 5.7 26 10.9 N 15 20 8 11 996.4 996.4 0.0
31/10:00pm 27.5 24.1 5.7 25 11.4 N 13 20 7 11 996.9 996.9 0.0
31/09:30pm 27.9 24.8 5.5 24 11.6 N 11 15 6 8 997.1 997.1 0.0
31/09:00pm 28.8 25.3 5.6 23 12.2 N 13 19 7 10 997.2 997.2 0.0
31/08:30pm 29.5 26.4 5.6 22 12.5 N 11 20 6 11 997.4 997.4 0.0
31/08:00pm 30.2 26.9 4.8 20 13.3 N 11 17 6 9 997.6 997.6 0.0
31/07:30pm 30.9 28.0 4.6 19 13.7 N 9 15 5 8 998.0 998.0 0.0
31/07:00pm 31.2 27.8 4.1 18 14.1 N 11 19 6 10 998.3 998.3 0.0
31/06:30pm 31.5 27.6 3.5 17 14.3 N 13 20 7 11 998.8 998.8 0.0
31/06:00pm 31.4 26.7 3.4 17 14.4 NNW 17 20 9 11 999.4 999.4 0.0
31/05:30pm 32.1 26.8 4.8 18 14.3 N 22 32 12 17 999.6 999.6 0.0
31/05:00pm 32.1 26.0 4.8 18 14.4 N 26 33 14 18 1000.0 1000.0 0.0
31/04:34pm 31.8 25.3 4.6 18 14.2 N 28 48 15 26 1000.4 1000.4 0.0
31/04:30pm 31.8 26.2 5.3 19 14.0 NNW 24 48 13 26 1000.4 1000.4 0.0
31/04:11pm 31.2 24.6 4.1 18 14.0 NNW 28 54 15 29 1000.7 1000.7 0.0
31/04:00pm 31.1 25.8 4.8 19 13.8 NNW 22 41 12 22 1000.8 1000.8 0.0
31/03:30pm 31.3 26.7 6.4 21 13.4 NNW 20 39 11 21 1001.5 1001.5 0.0
31/03:00pm 30.4 25.0 6.3 22 12.9 N 24 37 13 20 1002.3 1002.3 0.0
31/02:30pm 29.4 24.2 7.3 25 11.9 N 24 43 13 23 1003.0 1003.0 0.0
31/02:00pm 28.2 22.2 5.1 23 12.0 N 26 37 14 20 1003.7 1003.7 0.0
31/01:50pm 28.0 21.7 5.6 24 11.6 N 28 54 15 29 1003.9 1003.9 0.0
31/01:30pm 27.8 22.2 5.4 24 11.6 N 24 39 13 21 1004.3 1004.3 0.0
31/01:00pm 26.8 21.5 6.8 28 10.6 N 24 44 13 24 1005.0 1005.0 0.0
31/12:30pm 25.6 21.0 6.3 29 10.0 N 20 33 11 18 1006.0 1006.0 0.0
31/12:00pm 25.3 20.8 7.0 31 9.6 N 20 32 11 17 1006.6 1006.6 0.0
31/11:30am 24.4 20.1 7.1 33 9.0 N 19 32 10 17 1007.2 1007.2 0.0
31/11:00am 24.4 20.6 9.2 38 8.3 N 19 28 10 15 1007.8 1007.8 0.0
31/10:58am 23.9 20.1 9.1 39 8.0 N 19 28 10 15 1007.8 1007.8 0.0
31/10:30am 18.9 17.7 11.5 62 4.1 NE 9 17 5 9 1008.4 1008.4 0.0
31/10:00am 17.0 16.1 10.8 67 3.3 ENE 6 11 3 6 1008.9 1008.9 0.0
31/09:30am 15.8 14.7 10.6 71 2.8 NE 7 11 4 6 1009.2 1009.2 0.0
31/09:00am 14.8 13.3 10.6 76 2.2 NE 9 13 5 7 1009.6 1009.6 0.0
31/08:30am 13.4 11.7 10.0 80 1.8 NE 9 13 5 7 1009.9 1009.9 0.0
31/08:00am 11.8 10.3 9.2 84 1.3 NNE 7 11 4 6 1010.1 1010.1 0.0
31/07:30am 11.1 9.2 9.0 87 1.0 NNE 9 15 5 8 1010.3 1010.3 0.0
31/07:00am 10.4 8.0 8.8 90 0.8 NNE 11 15 6 8 1010.6 1010.6 0.0
31/06:30am 10.5 8.9 8.9 90 0.8 NE 7 11 4 6 1010.7 1010.7 0.0
31/06:00am 10.7 9.2 9.1 90 0.8 NE 7 9 4 5 1010.8 1010.8 0.0
31/05:30am 10.7 9.2 9.3 91 0.7 NNE 7 11 4 6 1010.6 1010.6 0.0
31/05:00am 10.9 9.5 9.5 91 0.7 NNE 7 11 4 6 1010.6 1010.6 0.0
31/04:30am 11.1 9.4 9.7 91 0.7 NNE 9 11 5 6 1011.2 1011.2 0.0
31/04:00am 10.8 10.9 10.2 96 0.3 CALM 0 4 0 2 1011.1 1011.1 0.0
31/03:30am 10.9 11.0 10.3 96 0.3 CALM 0 0 0 0 1011.4 1011.4 0.0
31/03:00am 11.3 11.5 10.4 94 0.5 CALM 0 0 0 0 1011.7 1011.7 0.0
31/02:30am 11.6 11.7 10.2 91 0.7 CALM 0 0 0 0 1012.1 1012.1 0.0
31/02:00am 11.8 12.0 10.5 92 0.7 CALM 0 0 0 0 1012.4 1012.4 0.0
31/01:30am 12.2 12.4 10.6 90 0.8 CALM 0 4 0 2 1013.2 1013.2 0.0
31/01:00am 12.3 12.5 10.4 88 1.0 CALM 0 0 0 0 1013.9 1013.9 0.0
31/12:30am 12.8 12.9 10.3 85 1.3 CALM 0 4 0 2 1013.8 1013.8 0.0
31/12:00am 13.3 13.5 10.5 83 1.5 SE 0 7 0 4 1014.0 1014.0 0.0
 
Date/Time
EDT
Tmp

°C
App
Tmp
°C
Dew
Point
°C
Rel
Hum
%
Delta-T

°C
Wind Press
QNH
hPa
Press
MSL
hPa
Rain
since
9 am
mm
Dir
 
Spd
km/h
Gust
km/h
Spd
kts
Gust
kts
30/11:30pm 13.6 12.6 10.2 80 1.8 S 6 11 3 6 1014.0 1014.0 0.0
30/11:00pm 14.0 12.4 10.2 78 2.0 SSE 9 15 5 8 1014.0 1014.0 0.0
30/10:30pm 14.3 13.2 10.5 78 2.0 SSE 7 15 4 8 1014.2 1014.2 0.0
30/10:00pm 14.5 13.5 10.3 76 2.2 S 6 13 3 7 1013.9 1013.9 0.0
30/09:30pm 14.8 12.9 10.6 76 2.2 SSE 11 24 6 13 1013.7 1013.7 0.0
30/09:00pm 15.5 12.7 10.1 70 2.8 SSE 15 24 8 13 1013.4 1013.4 0.0
30/08:30pm 15.7 15.2 12.8 83 1.6 SSW 7 13 4 7 1013.1 1013.1 0.0
30/08:00pm 15.8 14.3 12.0 78 2.1 SSW 11 19 6 10 1013.1 1013.1 0.0
30/07:30pm 16.8 15.0 10.9 68 3.2 SSW 11 15 6 8 1012.7 1012.7 0.0
30/07:00pm 18.1 16.0 9.7 58 4.4 SSW 11 20 6 11 1012.8 1012.8 0.0
30/06:30pm 19.0 17.1 8.9 52 5.3 SSW 9 17 5 9 1012.6 1012.6 0.0
30/06:00pm 19.7 17.6 8.4 48 5.9 SSE 9 19 5 10 1012.6 1012.6 0.0
30/05:30pm 20.7 18.2 8.0 44 6.6 S 11 19 6 10 1012.5 1012.5 0.0
30/05:00pm 20.1 17.3 7.1 43 6.6 S 11 19 6 10 1012.6 1012.6 0.0
30/04:30pm 20.2 17.6 7.6 44 6.5 SSW 11 22 6 12 1012.7 1012.7 0.0
30/04:00pm 19.0 15.9 7.4 47 5.9 SSW 13 20 7 11 1012.7 1012.7 0.0
30/03:30pm 19.6 16.2 7.7 46 6.1 SSW 15 28 8 15 1012.8 1012.8 0.0
30/03:00pm 19.3 16.2 7.4 46 6.1 SSW 13 22 7 12 1013.1 1013.1 0.0
30/02:30pm 19.2 16.6 7.9 48 5.8 S 11 19 6 10 1013.3 1013.3 0.0
30/02:00pm 18.6 15.9 8.8 53 5.1 S 13 26 7 14 1013.8 1013.8 0.0
30/01:30pm 18.4 15.6 8.7 53 5.0 SSW 13 20 7 11 1014.0 1014.0 0.0
30/01:00pm 18.9 17.2 9.9 56 4.8 S 9 15 5 8 1014.2 1014.2 0.0
30/12:30pm 18.2 16.2 8.5 53 5.0 S 9 17 5 9 1014.6 1014.6 0.0
30/12:00pm 17.3 14.5 8.4 56 4.6 SSW 13 20 7 11 1014.9 1014.9 0.0
30/11:30am 17.1 15.3 9.3 60 4.1 S 9 11 5 6 1015.3 1015.3 0.0
30/11:00am 16.4 13.7 8.9 61 3.9 S 13 19 7 10 1015.6 1015.6 0.0
30/10:30am 16.7 15.4 10.1 65 3.5 SW 7 19 4 10 1015.9 1015.9 0.0
30/10:00am 15.6 14.0 8.8 64 3.5 SSW 7 15 4 8 1016.1 1016.1 0.0
30/09:30am 15.6 14.2 9.5 67 3.2 WSW 7 15 4 8 1015.8 1015.8 0.0
30/09:00am 15.6 14.0 8.8 64 3.5 WSW 7 15 4 8 1015.9 1015.9 0.0
30/08:30am 15.0 13.0 8.5 65 3.3 WSW 9 17 5 9 1015.7 1015.7 0.0
30/08:00am 15.0 13.3 8.3 64 3.4 WSW 7 15 4 8 1015.8 1015.8 0.0
30/07:30am 14.7 13.2 9.3 70 2.8 SW 7 15 4 8 1015.3 1015.3 0.0
30/07:00am 14.5 14.5 11.1 80 1.8 E 2 7 1 4 1015.0 1015.0 0.0
30/06:30am 14.5 13.7 11.1 80 1.8 NE 6 11 3 6 1014.4 1014.4 0.0
30/06:00am 14.6 14.4 10.6 77 2.1 SSW 2 9 1 5 1014.5 1014.5 0.0
30/05:30am 14.5 14.4 10.7 78 2.0 SSW 2 11 1 6 1014.7 1014.7 0.0
30/05:00am 14.3 14.7 11.3 82 1.6 CALM 0 0 0 0 1014.6 1014.6 0.0
30/04:30am 14.5 14.9 11.3 81 1.7 CALM 0 7 0 4 1014.3 1014.3 0.0
30/04:00am 14.4 14.7 11.0 80 1.8 CALM 0 6 0 3 1014.3 1014.3 0.0
30/03:30am 14.6 14.6 11.0 79 1.9 N 2 7 1 4 1014.7 1014.7 0.0
30/03:00am 14.8 14.8 11.2 79 1.9 N 2 7 1 4 1014.7 1014.7 0.0
30/02:30am 14.6 14.6 11.0 79 1.9 NNE 2 7 1 4 1015.0 1015.0 0.0
30/02:00am 14.4 14.7 11.0 80 1.8 CALM 0 0 0 0 1015.4 1015.4 0.0
30/01:30am 14.3 14.3 11.1 81 1.7 NNE 2 7 1 4 1015.8 1015.8 0.0
30/01:00am 13.6 14.0 11.3 86 1.2 CALM 0 0 0 0 1016.1 1016.1 0.0
30/12:30am 13.5 13.9 11.2 86 1.2 CALM 0 0 0 0 1016.4 1016.4 0.0
30/12:00am 13.6 13.8 10.6 82 1.6 CALM 0 0 0 0 1016.4 1016.4 0.0
 
Date/Time
EDT
Tmp

°C
App
Tmp
°C
Dew
Point
°C
Rel
Hum
%
Delta-T

°C
Wind Press
QNH
hPa
Press
MSL
hPa
Rain
since
9 am
mm
Dir
 
Spd
km/h
Gust
km/h
Spd
kts
Gust
kts
29/11:30pm 13.6 13.7 10.2 80 1.8 CALM 0 0 0 0 1016.4 1016.4 0.0
29/11:00pm 14.3 13.7 10.3 77 2.1 SE 4 11 2 6 1016.4 1016.4 0.0
29/10:30pm 14.7 13.6 9.9 73 2.5 SE 6 11 3 6 1016.5 1016.5 0.0
29/10:00pm 15.3 14.1 10.3 72 2.6 SSE 7 13 4 7 1016.5 1016.5 0.0
29/09:30pm 15.8 14.9 10.8 72 2.7 S 6 11 3 6 1016.1 1016.1 0.0
29/09:00pm 16.1 15.2 10.8 71 2.8 S 6 13 3 7 1015.9 1015.9 0.0
29/08:30pm 16.3 14.9 10.8 70 2.9 S 9 19 5 10 1015.7 1015.7 0.0
29/08:00pm 16.6 14.2 10.2 66 3.4 S 13 22 7 12 1015.3 1015.3 0.0
29/07:30pm 17.0 14.8 9.4 61 4.0 S 11 26 6 14 1014.9 1014.9 0.0
29/07:00pm 17.6 15.0 9.2 58 4.4 S 13 24 7 13 1014.6 1014.6 0.0
29/06:30pm 18.4 15.6 8.7 53 5.0 SSW 13 20 7 11 1014.3 1014.3 0.0
29/06:00pm 21.1 18.9 7.7 42 6.9 S 9 15 5 8 1014.0 1014.0 0.0
29/05:30pm 21.0 18.9 8.3 44 6.6 S 9 17 5 9 1014.1 1014.1 0.0
29/05:00pm 20.3 17.4 8.0 45 6.4 SSW 13 19 7 10 1014.2 1014.2 0.0
29/04:30pm 21.2 19.2 8.5 44 6.7 SSW 9 15 5 8 1014.2 1014.2 0.0
29/04:00pm 21.1 19.0 8.4 44 6.7 S 9 15 5 8 1014.5 1014.5 0.0
29/03:30pm 20.6 18.4 9.2 48 6.0 SSW 11 17 6 9 1014.8 1014.8 0.0
29/03:00pm 20.8 18.9 7.4 42 6.9 SW 7 13 4 7 1015.3 1015.3 0.0
29/02:30pm 19.9 17.8 6.6 42 6.7 SW 7 13 4 7 1015.9 1015.9 0.0
29/02:00pm 19.0 17.4 7.8 48 5.7 WNW 6 13 3 7 1016.5 1016.5 0.0
29/01:30pm 18.2 15.9 7.3 49 5.5 SW 9 17 5 9 1017.0 1017.0 0.0
29/01:00pm 17.6 14.0 6.8 49 5.4 NNW 15 24 8 13 1017.4 1017.4 0.0
29/12:30pm 17.4 15.2 7.7 53 4.9 WSW 9 15 5 8 1017.7 1017.7 0.0
29/12:00pm 16.3 13.8 6.4 52 4.8 W 9 19 5 10 1018.3 1018.3 0.0
29/11:30am 15.6 12.6 6.1 53 4.6 WNW 11 20 6 11 1018.5 1018.5 0.0
29/11:00am 15.0 12.1 6.6 57 4.1 NNW 11 17 6 9 1018.8 1018.8 0.0
29/10:30am 14.6 11.7 6.7 59 3.8 NW 11 20 6 11 1019.0 1019.0 0.0
29/10:00am 14.1 11.7 6.9 62 3.5 NW 9 17 5 9 1019.2 1019.2 0.0
29/09:30am 13.9 11.7 7.7 66 3.1 W 9 15 5 8 1019.2 1019.2 0.0
29/09:00am 13.7 11.7 7.0 64 3.2 WNW 7 15 4 8 1019.0 1019.0 0.4
29/08:30am 13.3 11.7 8.0 70 2.6 NW 6 13 3 7 1019.0 1019.0 0.4
29/08:00am 12.9 11.3 8.0 72 2.4 W 6 13 3 7 1018.8 1018.8 0.4
29/07:30am 12.2 10.1 8.3 77 1.9 NNW 9 13 5 7 1018.6 1018.6 0.4
29/07:00am 12.0 9.9 8.3 78 1.8 NNW 9 15 5 8 1018.6 1018.6 0.4
29/06:30am 11.6 9.5 8.3 80 1.6 NNW 9 15 5 8 1018.3 1018.3 0.4
29/06:00am 11.2 10.0 8.2 82 1.5 WNW 4 9 2 5 1017.8 1017.8 0.4
29/05:30am 10.7 9.9 8.3 85 1.2 WNW 2 7 1 4 1017.6 1017.6 0.4
29/05:00am 11.3 9.8 8.5 83 1.4 W 6 11 3 6 1017.4 1017.4 0.4
29/04:30am 11.1 10.1 8.7 85 1.2 WNW 4 9 2 5 1017.4 1017.4 0.4
29/04:00am 11.6 10.0 8.6 82 1.5 NW 7 13 4 7 1017.2 1017.2 0.4
29/03:30am 12.2 10.8 8.9 80 1.6 WNW 6 13 3 7 1017.2 1017.2 0.4
29/03:00am 12.4 10.4 8.5 77 1.9 W 9 19 5 10 1017.2 1017.2 0.4
29/02:30am 12.5 10.3 8.0 74 2.2 WSW 9 22 5 12 1017.1 1017.1 0.4
29/02:00am 13.0 10.6 7.0 67 2.9 W 9 20 5 11 1017.1 1017.1 0.4
29/01:30am 13.1 11.0 6.7 65 3.1 W 7 15 4 8 1017.4 1017.4 0.4
29/01:00am 13.1 11.2 6.5 64 3.1 W 6 15 3 8 1017.7 1017.7 0.4
29/12:30am 13.2 11.3 6.5 64 3.2 WSW 6 13 3 7 1017.7 1017.7 0.4
29/12:00am 13.4 11.4 6.3 62 3.4 SW 6 20 3 11 1017.7 1017.7 0.4

Latest Capital City Observations: Canberra | Sydney | Melbourne | Brisbane | Adelaide | Perth | Hobart | Darwin

Other Formats:

Comma delimited format used in spreadsheet applications
http://www.bom.gov.au/fwo/IDV60901/IDV60901.95936.axf

JavaScript Object Notation format (JSON) in row-major order
http://www.bom.gov.au/fwo/IDV60901/IDV60901.95936.json